createdAt,value
2023-04-27T00:01:49.775Z,24.40
2023-04-27T00:04:18.158Z,20.40
2023-04-27T00:06:46.494Z,20.80
2023-04-27T00:09:14.699Z,24.90
2023-04-27T00:11:42.917Z,26.80
2023-04-27T00:14:11.008Z,20.40
2023-04-27T00:16:39.046Z,21.40
2023-04-27T00:19:09.030Z,18.80
2023-04-27T00:21:36.972Z,20.10
2023-04-27T00:24:06.105Z,23.40
2023-04-27T00:26:34.149Z,20.70
2023-04-27T00:29:02.060Z,12.30
2023-04-27T00:31:30.046Z,20.00
2023-04-27T00:33:58.080Z,20.20
2023-04-27T00:36:27.124Z,19.30
2023-04-27T00:38:55.084Z,23.10
2023-04-27T00:41:23.120Z,17.20
2023-04-27T00:43:51.222Z,16.10
2023-04-27T00:46:19.969Z,14.30
2023-04-27T00:48:48.407Z,17.40
2023-04-27T00:51:16.935Z,16.00
2023-04-27T00:53:44.958Z,15.60
2023-04-27T00:56:13.133Z,17.30
2023-04-27T00:58:41.120Z,17.60
2023-04-27T01:01:10.353Z,13.20
2023-04-27T01:03:38.559Z,10.90
2023-04-27T01:06:07.633Z,13.30
2023-04-27T01:08:36.834Z,10.80
2023-04-27T01:11:05.075Z,14.90
2023-04-27T01:13:32.972Z,8.20
2023-04-27T01:16:02.635Z,12.70
2023-04-27T01:18:31.943Z,10.80
2023-04-27T01:21:00.531Z,10.40
2023-04-27T01:23:28.625Z,12.50
2023-04-27T01:25:56.720Z,8.60
2023-04-27T01:28:24.635Z,9.30
2023-04-27T01:30:52.646Z,11.40
2023-04-27T01:33:21.073Z,12.30
2023-04-27T01:35:49.621Z,12.80
2023-04-27T01:38:18.115Z,10.70
2023-04-27T01:40:46.076Z,15.00
2023-04-27T01:43:14.559Z,13.00
2023-04-27T01:45:42.476Z,14.30
2023-04-27T01:48:11.766Z,13.80
2023-04-27T01:50:39.675Z,6.80
2023-04-27T01:53:07.787Z,7.10
2023-04-27T01:55:35.860Z,10.90
2023-04-27T01:58:03.841Z,9.30
2023-04-27T02:00:33.082Z,7.50
2023-04-27T02:03:01.404Z,10.20
2023-04-27T02:05:29.637Z,9.10
2023-04-27T02:07:57.534Z,12.90
2023-04-27T02:10:25.699Z,14.20
2023-04-27T02:12:57.251Z,12.30
2023-04-27T02:15:25.287Z,8.80
2023-04-27T02:17:53.262Z,16.50
2023-04-27T02:20:21.280Z,12.20
2023-04-27T02:22:49.200Z,15.90
2023-04-27T02:25:17.233Z,13.00
2023-04-27T02:27:45.248Z,10.00
2023-04-27T02:30:15.475Z,16.30
2023-04-27T02:32:44.254Z,11.70
2023-04-27T02:35:12.404Z,10.90
2023-04-27T02:37:40.330Z,16.80
2023-04-27T02:40:09.426Z,20.00
2023-04-27T02:42:39.141Z,11.20
2023-04-27T02:45:08.268Z,8.50
2023-04-27T02:47:37.778Z,19.10
2023-04-27T02:50:06.147Z,9.70
2023-04-27T02:52:35.563Z,13.50
2023-04-27T02:55:03.682Z,12.60
2023-04-27T02:57:31.818Z,14.70
2023-04-27T02:59:59.811Z,11.40
2023-04-27T03:02:27.815Z,13.40
2023-04-27T03:04:56.158Z,13.60
2023-04-27T03:07:25.321Z,12.50
2023-04-27T03:09:53.220Z,13.90
2023-04-27T03:12:21.098Z,8.30
2023-04-27T03:14:49.028Z,9.60
2023-04-27T03:17:16.887Z,11.80
2023-04-27T03:19:47.038Z,11.90
2023-04-27T03:22:15.005Z,12.80
2023-04-27T03:24:43.378Z,12.00
2023-04-27T03:27:11.981Z,11.20
2023-04-27T03:29:39.893Z,16.30
2023-04-27T03:32:08.212Z,11.80
2023-04-27T03:34:37.068Z,16.30
2023-04-27T03:37:05.051Z,10.50
2023-04-27T03:39:33.039Z,13.80
2023-04-27T03:42:01.532Z,8.40
2023-04-27T03:44:31.656Z,20.50
2023-04-27T03:47:00.659Z,11.60
2023-04-27T03:49:28.904Z,10.50
2023-04-27T03:51:57.255Z,14.20
2023-04-27T03:54:25.129Z,13.30
2023-04-27T03:56:53.032Z,17.30
2023-04-27T03:59:21.586Z,14.70
2023-04-27T04:01:51.857Z,8.00
2023-04-27T04:04:21.648Z,13.00
2023-04-27T04:06:49.733Z,13.90
2023-04-27T04:09:18.126Z,7.30
2023-04-27T04:11:46.071Z,8.20
2023-04-27T04:14:15.488Z,12.30
2023-04-27T04:16:43.374Z,10.80
2023-04-27T04:19:11.482Z,15.40
2023-04-27T04:21:39.509Z,12.50
2023-04-27T04:24:07.627Z,16.20
2023-04-27T04:26:35.571Z,11.10
2023-04-27T04:29:03.821Z,13.40
2023-04-27T04:31:33.815Z,13.70
2023-04-27T04:34:02.486Z,8.80
2023-04-27T04:36:32.022Z,9.70
2023-04-27T04:39:00.662Z,10.30
2023-04-27T04:41:28.558Z,15.10
2023-04-27T04:43:56.503Z,9.60
2023-04-27T04:46:25.181Z,10.60
2023-04-27T04:48:54.880Z,12.90
2023-04-27T04:51:23.014Z,9.20
2023-04-27T04:53:51.190Z,14.20
2023-04-27T04:56:19.130Z,15.30
2023-04-27T04:58:47.051Z,13.40
2023-04-27T05:01:15.001Z,12.70
2023-04-27T05:03:43.073Z,13.20
2023-04-27T05:06:11.262Z,17.30
2023-04-27T05:08:39.151Z,15.20
2023-04-27T05:11:07.554Z,20.20
2023-04-27T05:13:35.844Z,14.00
2023-04-27T05:16:08.311Z,14.80
2023-04-27T05:18:36.401Z,13.70
2023-04-27T05:21:04.370Z,10.70
2023-04-27T05:23:32.262Z,13.90
2023-04-27T05:26:00.416Z,14.20
2023-04-27T05:28:28.324Z,14.10
2023-04-27T05:30:56.436Z,12.40
2023-04-27T05:33:24.317Z,13.10
2023-04-27T05:35:52.351Z,12.20
2023-04-27T05:38:20.436Z,11.70
2023-04-27T05:40:57.463Z,12.80
2023-04-27T05:43:26.313Z,11.40
2023-04-27T05:45:54.336Z,11.10
2023-04-27T05:48:22.291Z,9.40
2023-04-27T05:50:59.857Z,9.70
2023-04-27T05:53:27.863Z,11.50
2023-04-27T05:55:59.292Z,8.90
2023-04-27T05:58:30.495Z,8.00
2023-04-27T06:00:58.958Z,8.10
2023-04-27T06:03:27.369Z,8.00
2023-04-27T06:05:58.772Z,9.00
2023-04-27T06:08:28.028Z,13.60
2023-04-27T06:10:56.070Z,8.70
2023-04-27T06:13:24.136Z,11.90
2023-04-27T06:15:52.203Z,8.20
2023-04-27T06:18:20.235Z,8.00
2023-04-27T06:20:48.248Z,8.60
2023-04-27T06:23:16.316Z,7.00
2023-04-27T06:25:44.450Z,8.80
2023-04-27T06:28:12.405Z,5.70
2023-04-27T06:30:40.336Z,4.50
2023-04-27T06:33:09.176Z,5.10
2023-04-27T06:35:37.206Z,8.00
2023-04-27T06:38:07.559Z,5.90
2023-04-27T06:40:37.170Z,7.00
2023-04-27T06:43:05.059Z,9.10
2023-04-27T06:45:33.034Z,6.80
2023-04-27T06:48:00.988Z,7.60
2023-04-27T06:50:29.547Z,7.80
2023-04-27T06:52:57.674Z,4.90
2023-04-27T06:55:25.742Z,8.50
2023-04-27T06:57:53.665Z,6.50
2023-04-27T07:00:21.951Z,9.30
2023-04-27T07:02:49.947Z,5.50
2023-04-27T07:05:17.989Z,4.80
2023-04-27T07:07:47.008Z,4.40
2023-04-27T07:10:14.921Z,7.70
2023-04-27T07:12:42.948Z,9.70
2023-04-27T07:15:11.517Z,8.00
2023-04-27T07:17:39.456Z,6.10
2023-04-27T07:20:08.790Z,6.70
2023-04-27T07:22:36.782Z,5.70
2023-04-27T07:25:05.685Z,5.70
2023-04-27T07:27:35.724Z,7.90
2023-04-27T07:30:04.777Z,5.90
2023-04-27T07:32:32.819Z,7.80
2023-04-27T07:35:00.915Z,5.50
2023-04-27T07:37:28.967Z,4.50
2023-04-27T07:39:57.734Z,12.10
2023-04-27T07:42:25.701Z,6.00
2023-04-27T07:44:54.283Z,5.30
2023-04-27T07:47:22.206Z,4.80
2023-04-27T07:49:50.214Z,5.30
2023-04-27T07:52:18.180Z,5.20
2023-04-27T07:54:46.057Z,5.20
2023-04-27T07:57:14.028Z,7.60
2023-04-27T07:59:42.037Z,6.10
2023-04-27T08:02:18.562Z,6.40
2023-04-27T08:04:48.611Z,5.60
2023-04-27T08:07:18.089Z,7.20
2023-04-27T08:09:46.185Z,6.40
2023-04-27T08:12:14.243Z,10.30
2023-04-27T08:14:42.672Z,7.80
2023-04-27T08:17:11.412Z,9.30
2023-04-27T08:19:40.789Z,5.10
2023-04-27T08:22:08.836Z,8.00
2023-04-27T08:24:37.472Z,4.90
2023-04-27T08:27:09.623Z,8.00
2023-04-27T08:29:37.686Z,7.70
2023-04-27T08:32:05.886Z,7.70
2023-04-27T08:34:33.862Z,6.00
2023-04-27T08:37:03.344Z,5.40
2023-04-27T08:39:31.259Z,11.00
2023-04-27T08:41:59.175Z,4.70
2023-04-27T08:44:27.119Z,13.20
2023-04-27T08:46:55.045Z,12.00
2023-04-27T08:49:23.415Z,6.10
2023-04-27T08:51:51.503Z,8.40
2023-04-27T08:54:20.897Z,8.30
2023-04-27T08:56:48.837Z,8.30
2023-04-27T08:59:18.027Z,6.50
2023-04-27T09:01:50.010Z,8.80
2023-04-27T09:04:18.715Z,7.00
2023-04-27T09:06:46.836Z,6.70
2023-04-27T09:09:25.478Z,12.40
2023-04-27T09:11:53.488Z,9.90
2023-04-27T09:14:24.236Z,10.20
2023-04-27T09:16:57.666Z,10.80
2023-04-27T09:19:27.299Z,5.80
2023-04-27T09:22:11.396Z,6.20
2023-04-27T09:24:51.360Z,7.80
2023-04-27T09:27:21.809Z,10.70
2023-04-27T09:29:49.679Z,9.20
2023-04-27T09:32:19.800Z,9.80
2023-04-27T09:34:47.701Z,9.40
2023-04-27T09:37:16.001Z,8.30
2023-04-27T09:39:44.700Z,5.90
2023-04-27T09:42:13.404Z,6.00
2023-04-27T09:44:41.426Z,7.60
2023-04-27T09:47:10.748Z,5.60
2023-04-27T09:49:38.956Z,5.60
2023-04-27T09:52:07.229Z,5.90
2023-04-27T09:54:36.507Z,7.60
2023-04-27T09:57:46.779Z,9.60
2023-04-27T10:00:33.451Z,8.90
2023-04-27T10:03:16.866Z,13.00
2023-04-27T10:05:57.358Z,6.60
2023-04-27T10:08:25.654Z,8.90
2023-04-27T10:10:53.752Z,10.90
2023-04-27T10:13:24.040Z,7.80
2023-04-27T10:15:52.736Z,8.20
2023-04-27T10:18:29.486Z,9.40
2023-04-27T10:21:09.772Z,12.90
2023-04-27T10:23:47.387Z,12.80
2023-04-27T10:26:26.583Z,7.60
2023-04-27T10:29:08.805Z,10.70
2023-04-27T10:31:44.207Z,9.60
2023-04-27T10:34:18.522Z,8.60
2023-04-27T10:36:48.668Z,12.20
2023-04-27T10:39:19.162Z,8.00
2023-04-27T10:41:51.947Z,7.90
2023-04-27T10:44:58.187Z,8.20
2023-04-27T10:47:36.638Z,7.50
2023-04-27T10:50:05.175Z,6.80
2023-04-27T10:52:31.825Z,7.70
2023-04-27T10:55:04.706Z,9.40
2023-04-27T10:57:31.306Z,9.20
2023-04-27T10:59:57.985Z,7.30
2023-04-27T11:02:26.679Z,9.40
2023-04-27T11:04:55.136Z,9.90
2023-04-27T11:07:27.051Z,10.30
2023-04-27T11:09:54.166Z,11.70
2023-04-27T11:12:21.076Z,8.50
2023-04-27T11:14:47.708Z,7.30
2023-04-27T11:17:14.271Z,7.80
2023-04-27T11:19:46.867Z,9.60
2023-04-27T11:22:17.417Z,7.70
2023-04-27T11:24:49.796Z,9.20
2023-04-27T11:27:17.333Z,4.80
2023-04-27T11:29:44.242Z,6.70
2023-04-27T11:32:22.029Z,8.70
2023-04-27T11:34:54.305Z,10.80
2023-04-27T11:37:23.689Z,7.80
2023-04-27T11:39:51.388Z,9.00
2023-04-27T11:42:19.208Z,4.80
2023-04-27T11:44:57.421Z,6.40
2023-04-27T11:47:26.858Z,7.90
2023-04-27T11:50:01.024Z,7.10
2023-04-27T11:52:32.495Z,6.70
2023-04-27T11:55:00.671Z,8.50
2023-04-27T11:57:32.173Z,6.20
2023-04-27T12:00:00.783Z,5.10
2023-04-27T12:02:29.137Z,7.80
2023-04-27T12:04:58.259Z,7.00
2023-04-27T12:07:24.931Z,4.00
2023-04-27T12:09:51.465Z,4.60
2023-04-27T12:12:18.662Z,7.80
2023-04-27T12:14:45.373Z,9.60
2023-04-27T12:17:12.212Z,8.30
2023-04-27T12:19:38.828Z,5.40
2023-04-27T12:22:05.790Z,9.80
2023-04-27T12:24:32.357Z,7.80
2023-04-27T12:26:59.060Z,6.90
2023-04-27T12:29:25.749Z,9.00
2023-04-27T12:31:52.730Z,9.10
2023-04-27T12:34:20.243Z,8.10
2023-04-27T12:36:46.792Z,10.60
2023-04-27T12:39:13.953Z,6.80
2023-04-27T12:41:42.700Z,7.80
2023-04-27T12:44:09.574Z,7.70
2023-04-27T12:46:36.148Z,6.10
2023-04-27T12:49:02.812Z,6.10
2023-04-27T12:51:29.509Z,5.40
2023-04-27T12:53:56.201Z,15.10
2023-04-27T12:56:23.586Z,12.70
2023-04-27T12:58:50.317Z,17.90
2023-04-27T13:01:17.240Z,11.70
2023-04-27T13:03:44.174Z,5.80
2023-04-27T13:06:11.531Z,8.00
2023-04-27T13:08:38.769Z,6.40
2023-04-27T13:11:05.413Z,6.50
2023-04-27T13:13:32.008Z,5.00
2023-04-27T13:15:58.595Z,5.30
2023-04-27T13:18:25.680Z,12.10
2023-04-27T13:20:52.548Z,6.50
2023-04-27T13:23:19.136Z,7.00
2023-04-27T13:25:45.710Z,7.90
2023-04-27T13:28:12.431Z,6.00
2023-04-27T13:30:39.107Z,8.10
2023-04-27T13:33:21.197Z,5.70
2023-04-27T13:35:51.390Z,7.90
2023-04-27T13:38:17.973Z,9.80
2023-04-27T13:40:44.740Z,8.80
2023-04-27T13:43:11.284Z,7.20
2023-04-27T13:45:39.789Z,7.60
2023-04-27T13:48:06.563Z,6.50
2023-04-27T13:50:33.179Z,6.20
2023-04-27T13:53:01.259Z,8.20
2023-04-27T13:55:27.933Z,9.40
2023-04-27T13:57:54.467Z,7.40
2023-04-27T14:00:21.352Z,9.90
2023-04-27T14:02:47.971Z,6.20
2023-04-27T14:05:14.809Z,9.40
2023-04-27T14:07:41.317Z,5.60
2023-04-27T14:10:08.351Z,8.20
2023-04-27T14:12:35.475Z,6.20
2023-04-27T14:15:02.451Z,4.30
2023-04-27T14:17:29.008Z,7.10
2023-04-27T14:19:55.628Z,5.60
2023-04-27T14:22:22.291Z,5.20
2023-04-27T14:24:48.977Z,5.50
2023-04-27T14:27:16.512Z,3.80
2023-04-27T14:29:43.160Z,5.40
2023-04-27T14:32:09.721Z,10.80
2023-04-27T14:34:36.669Z,6.40
2023-04-27T14:37:03.473Z,6.90
2023-04-27T14:39:30.181Z,7.90
2023-04-27T14:41:56.738Z,12.00
2023-04-27T14:44:23.362Z,11.60
2023-04-27T14:46:50.149Z,8.30
2023-04-27T14:49:17.132Z,8.60
2023-04-27T14:51:44.022Z,10.90
2023-04-27T14:54:10.734Z,6.60
2023-04-27T14:56:37.359Z,5.30
2023-04-27T14:59:04.699Z,7.30
2023-04-27T15:01:31.264Z,7.70
2023-04-27T15:03:58.280Z,6.90
2023-04-27T15:06:28.032Z,9.30
2023-04-27T15:08:54.934Z,11.70
2023-04-27T15:11:21.988Z,11.30
2023-04-27T15:13:48.751Z,12.90
2023-04-27T15:16:15.425Z,8.50
2023-04-27T15:18:42.526Z,4.80
2023-04-27T15:21:09.256Z,6.70
2023-04-27T15:23:36.760Z,7.30
2023-04-27T15:26:03.411Z,6.20
2023-04-27T15:28:32.969Z,8.90
2023-04-27T15:31:00.120Z,5.40
2023-04-27T15:33:26.944Z,11.70
2023-04-27T15:35:53.550Z,8.90
2023-04-27T15:38:20.459Z,8.10
2023-04-27T15:40:47.090Z,10.70
2023-04-27T15:43:14.409Z,11.40
2023-04-27T15:45:41.330Z,9.50
2023-04-27T15:48:07.953Z,11.10
2023-04-27T15:50:34.621Z,8.20
2023-04-27T15:53:01.202Z,12.10
2023-04-27T15:55:27.723Z,32.40
2023-04-27T15:57:54.307Z,38.80
2023-04-27T16:00:21.844Z,13.30
2023-04-27T16:02:48.578Z,16.80
2023-04-27T16:05:16.214Z,13.60
2023-04-27T16:07:44.483Z,13.90
2023-04-27T16:10:11.643Z,8.20
2023-04-27T16:12:38.442Z,62.20
2023-04-27T16:15:06.914Z,24.30
2023-04-27T16:17:35.470Z,32.90
2023-04-27T16:20:05.986Z,23.60
2023-04-27T16:22:34.132Z,8.50
2023-04-27T16:25:01.579Z,13.00
2023-04-27T16:27:28.192Z,28.70
2023-04-27T16:29:55.906Z,28.80
2023-04-27T16:32:23.023Z,36.10
2023-04-27T16:34:50.166Z,16.30
2023-04-27T16:37:16.729Z,26.70
2023-04-27T16:39:43.418Z,12.60
2023-04-27T16:42:10.230Z,11.10
2023-04-27T16:44:37.762Z,7.90
2023-04-27T16:47:04.317Z,13.20
2023-04-27T16:49:30.887Z,22.00
2023-04-27T16:51:57.725Z,10.40
2023-04-27T16:54:24.275Z,11.80
2023-04-27T16:56:51.292Z,11.60
2023-04-27T16:59:19.021Z,7.80
2023-04-27T17:01:45.579Z,10.20
2023-04-27T17:04:12.544Z,7.10
2023-04-27T17:06:40.571Z,10.70
2023-04-27T17:09:07.799Z,6.60
2023-04-27T17:11:34.477Z,9.50
2023-04-27T17:14:01.178Z,8.20
2023-04-27T17:16:27.761Z,11.80
2023-04-27T17:18:55.595Z,14.70
2023-04-27T17:21:24.508Z,10.60
2023-04-27T17:23:52.484Z,13.60
2023-04-27T17:26:39.148Z,13.20
2023-04-27T17:29:07.189Z,13.90
2023-04-27T17:31:35.102Z,11.50
2023-04-27T17:34:03.425Z,15.80
2023-04-27T17:36:31.638Z,11.80
2023-04-27T17:39:01.247Z,51.80
2023-04-27T17:41:29.204Z,20.60
2023-04-27T17:43:58.304Z,14.50
2023-04-27T17:46:27.430Z,22.00
2023-04-27T17:48:55.539Z,12.60
2023-04-27T17:51:25.162Z,12.30
2023-04-27T17:53:53.116Z,13.10
2023-04-27T17:56:21.013Z,15.10
2023-04-27T17:58:48.918Z,13.50
2023-04-27T18:01:16.907Z,15.00
2023-04-27T18:03:45.089Z,14.70
2023-04-27T18:06:13.210Z,15.50
2023-04-27T18:08:41.309Z,13.90
2023-04-27T18:11:09.241Z,17.00
2023-04-27T18:13:37.901Z,22.50
2023-04-27T18:16:06.054Z,17.80
2023-04-27T18:18:34.035Z,18.30
2023-04-27T18:21:02.021Z,13.90
2023-04-27T18:23:30.658Z,15.90
2023-04-27T18:26:00.081Z,11.10
2023-04-27T18:28:28.026Z,17.70
2023-04-27T18:30:56.045Z,15.40
2023-04-27T18:33:24.055Z,17.10
2023-04-27T18:35:52.062Z,17.30
2023-04-27T18:38:19.994Z,15.40
2023-04-27T18:40:47.927Z,16.00
2023-04-27T18:43:15.986Z,16.80
2023-04-27T18:45:43.979Z,12.90
2023-04-27T18:48:11.938Z,15.00
2023-04-27T18:50:40.202Z,76.30
2023-04-27T18:53:08.281Z,97.30
2023-04-27T18:55:36.179Z,54.00
2023-04-27T18:58:04.031Z,46.00
2023-04-27T19:00:32.135Z,56.00
2023-04-27T19:03:00.169Z,56.60
2023-04-27T19:05:28.293Z,40.70
2023-04-27T19:07:56.223Z,29.80
2023-04-27T19:10:24.357Z,16.40
2023-04-27T19:12:53.243Z,22.50
2023-04-27T19:15:21.522Z,17.30
2023-04-27T19:17:58.564Z,22.20
2023-04-27T19:20:35.575Z,24.00
2023-04-27T19:23:05.172Z,20.30
2023-04-27T19:25:33.364Z,20.70
2023-04-27T19:28:01.399Z,16.80
2023-04-27T19:30:29.868Z,16.30
2023-04-27T19:32:57.932Z,17.30
2023-04-27T19:35:27.562Z,20.30
2023-04-27T19:37:56.008Z,18.60
2023-04-27T19:40:26.884Z,16.70
2023-04-27T19:42:55.143Z,18.60
2023-04-27T19:45:23.706Z,20.80
2023-04-27T19:47:51.696Z,15.40
2023-04-27T19:50:19.969Z,14.00
2023-04-27T19:52:48.005Z,18.00
2023-04-27T19:55:16.044Z,20.50
2023-04-27T19:57:44.783Z,27.10
2023-04-27T20:00:13.180Z,20.00
2023-04-27T20:02:41.962Z,19.20
2023-04-27T20:05:11.580Z,23.80
2023-04-27T20:07:39.736Z,35.20
2023-04-27T20:10:07.857Z,34.80
2023-04-27T20:15:08.138Z,37.20
2023-04-27T20:17:36.636Z,24.20
2023-04-27T20:20:10.533Z,36.20
2023-04-27T20:22:38.924Z,44.90
2023-04-27T20:25:07.933Z,39.60
2023-04-27T20:27:36.121Z,32.80
2023-04-27T20:30:04.551Z,31.00
2023-04-27T20:32:32.481Z,30.80
2023-04-27T20:35:02.623Z,30.10
2023-04-27T20:37:32.195Z,21.70
2023-04-27T20:40:00.982Z,18.00
2023-04-27T20:42:29.687Z,17.30
2023-04-27T20:44:57.760Z,21.10
2023-04-27T20:47:25.853Z,21.90
2023-04-27T20:49:53.867Z,17.60
2023-04-27T20:52:21.961Z,18.90
2023-04-27T20:54:49.922Z,14.90
2023-04-27T20:57:17.872Z,12.50
2023-04-27T20:59:45.857Z,12.60
2023-04-27T21:02:13.855Z,9.90
2023-04-27T21:04:43.253Z,15.70
2023-04-27T21:07:11.510Z,10.00
2023-04-27T21:09:39.484Z,8.10
2023-04-27T21:12:07.689Z,9.80
2023-04-27T21:14:35.956Z,8.80
2023-04-27T21:17:04.183Z,13.20
2023-04-27T21:19:32.228Z,9.50
2023-04-27T21:22:00.173Z,10.40
2023-04-27T21:24:28.111Z,11.60
2023-04-27T21:26:56.174Z,15.00
2023-04-27T21:29:24.246Z,21.50
2023-04-27T21:31:52.186Z,12.80
2023-04-27T21:34:20.157Z,12.10
2023-04-27T21:36:48.067Z,11.40
2023-04-27T21:39:16.086Z,8.60
2023-04-27T21:41:44.081Z,9.10
2023-04-27T21:44:12.045Z,7.90
2023-04-27T21:46:40.043Z,7.90
2023-04-27T21:49:08.833Z,9.90
2023-04-27T21:51:37.104Z,94.60
2023-04-27T21:54:05.291Z,17.10
2023-04-27T21:56:42.673Z,12.00
2023-04-27T21:59:10.860Z,17.00
2023-04-27T22:01:39.416Z,11.90
2023-04-27T22:04:07.601Z,10.30
2023-04-27T22:06:35.905Z,14.10
2023-04-27T22:09:04.759Z,7.80
2023-04-27T22:11:34.457Z,10.90
2023-04-27T22:14:02.356Z,16.40
2023-04-27T22:16:30.414Z,13.10
2023-04-27T22:18:59.730Z,19.20
2023-04-27T22:21:28.888Z,9.00
2023-04-27T22:23:57.095Z,11.70
2023-04-27T22:26:25.095Z,12.30
2023-04-27T22:28:53.329Z,9.20
2023-04-27T22:31:21.913Z,6.10
2023-04-27T22:33:49.920Z,6.60
2023-04-27T22:36:18.024Z,7.70
2023-04-27T22:38:46.029Z,8.90
2023-04-27T22:41:13.944Z,11.50
2023-04-27T22:43:42.037Z,7.90
2023-04-27T22:46:10.147Z,8.30
2023-04-27T22:48:38.073Z,5.10
2023-04-27T22:51:12.491Z,9.10
2023-04-27T22:53:40.669Z,13.10
2023-04-27T22:56:08.737Z,6.70
2023-04-27T22:58:36.777Z,5.20
2023-04-27T23:01:04.836Z,8.00
2023-04-27T23:03:32.972Z,6.80
2023-04-27T23:06:01.050Z,4.70
2023-04-27T23:08:29.614Z,4.40
2023-04-27T23:10:57.601Z,4.80
2023-04-27T23:13:28.479Z,6.50
2023-04-27T23:15:56.816Z,7.20
2023-04-27T23:18:24.774Z,7.20
2023-04-27T23:20:56.838Z,8.20
2023-04-27T23:23:24.802Z,11.80
2023-04-27T23:25:52.710Z,10.10
2023-04-27T23:28:20.922Z,9.60
2023-04-27T23:30:53.951Z,15.50
2023-04-27T23:33:22.281Z,9.40
2023-04-27T23:35:50.337Z,10.90
2023-04-27T23:38:18.617Z,15.00
2023-04-27T23:40:46.752Z,14.30
2023-04-27T23:43:14.676Z,12.70
2023-04-27T23:45:42.684Z,10.90
2023-04-27T23:48:10.758Z,8.30
2023-04-27T23:50:38.717Z,7.50
2023-04-27T23:53:06.666Z,6.40
2023-04-27T23:55:35.155Z,6.90
2023-04-27T23:58:03.802Z,5.30
